• Join FlightAware (Why Join?)
  • Login
  • US Flag 
10:36AM EDT


 

Airport Tracker/Info


-or-


 

Live Flight TrackerFlight Track Log ✈ SWA1910 ✈ 11-Apr-2013 ✈ KFLL - KBUF

Flight Track Log - Related Links

Times and Time Zones

All times are in EDT time to prevent confusion due to time zone crossing. See the SWA1910 flight status page for this flight to view local times or setup timezone preferences in your user account.

Time Position Orientation Groundspeed Altitude Reporting Facility
EDT Latitude Longitude Course Direction KTS MPH feet Rate Location/Type
02:04PM 26.0581 -80.1386 88° East 149 171 1,200  Level Miami Center
02:04PM 26.0589 -80.1108 88° East 183 211 1,800 2,280 Climbing Miami Center
02:05PM 26.0747 -80.0533 73° East 237 273 4,400 1,680 Climbing Miami Center
02:06PM 26.0972 -79.9778 72° East 247 284 5,000 1,440 Climbing Miami Center
02:07PM 26.1364 -79.9022 60° Northeast 261 300 7,300 2,760 Climbing Miami Center
02:08PM 26.1778 -79.8222 60° Northeast 279 321 10,600 2,820 Climbing Miami Center
02:09PM 26.2256 -79.7333 59° Northeast 309 356 13,000 2,460 Climbing Miami Center
02:10PM 26.2711 -79.6417 61° Northeast 346 398 15,600 2,880 Climbing Miami Center
02:11PM 26.3397 -79.5389 53° Northeast 376 433 18,800 2,820 Climbing Miami Center
02:12PM 26.4183 -79.4711 38° Northeast 387 445 21,300 2,400 Climbing Miami Center
02:13PM 26.5344 -79.4111 25° Northeast 402 463 23,600 2,040 Climbing Miami Center
02:14PM 26.6314 -79.3597 25° Northeast 421 484 25,400 2,100 Climbing Miami Center
02:15PM 26.7536 -79.2972 25° Northeast 431 496 27,900 2,400 Climbing Miami Center
02:16PM 26.8631 -79.2389 25° Northeast 431 496 30,200 1,500 Climbing Miami Center
02:17PM 26.9683 -79.1828 25° Northeast 421 484 31,000 360 Climbing Miami Center
02:18PM 27.0739 -79.1242 26° Northeast 421 484 31,000 780 Level Miami Center
02:19PM 27.1789 -79.0725 24° Northeast 416 479 32,800 900 Climbing Miami Center
02:20PM 27.2969 -79.0094 25° Northeast 416 479 33,000 60 Climbing Miami Center
02:21PM 27.4169 -78.9508 23° Northeast 421 484 33,000  Level Miami Center
02:22PM 27.5319 -78.9317 North 413 475 33,000  Level Miami Center
02:23PM 27.6450 -78.9150 North 416 479 33,000  Level Miami Center
02:24PM 27.7475 -78.9028 North 416 479 33,000  Level Miami Center
02:25PM 27.8750 -78.8839 North 411 473 33,000  Level Miami Center
02:26PM 27.9775 -78.8717 North 411 473 33,000  Level Miami Center
02:27PM 28.0925 -78.8547 North 416 479 33,000  Level Miami Center
02:28PM 28.2078 -78.8381 North 409 471 33,000  Level Miami Center
02:29PM 28.3206 -78.8233 North 409 471 33,000  Level Miami Center
02:30PM 28.4356 -78.8067 North 409 471 33,000  Level Miami Center
02:31PM 28.5528 -78.7919 North 409 471 33,000  Level Miami Center
02:32PM 28.6656 -78.7775 North 409 471 33,000  Level Miami Center
02:33PM 28.7786 -78.7606 North 409 471 33,000  Level Miami Center
02:34PM 28.8936 -78.7433 North 409 471 33,000  Level Miami Center
02:35PM 29.0022 -78.7264 North 409 471 33,000  Level Miami Center
02:36PM 29.1150 -78.7092 North 409 471 33,000  Level Miami Center
02:38PM 29.3222 -78.6747 North 419 482 33,000  Level Jacksonville Center
02:39PM 29.4219 -78.6608 North 414 476 33,000  Level Jacksonville Center
02:40PM 29.5383 -78.6439 North 414 476 33,000  Level Jacksonville Center
02:41PM 29.6589 -78.6292 North 414 476 33,000  Level Jacksonville Center
02:42PM 29.7708 -78.6122 North 419 482 33,000  Level Jacksonville Center
02:43PM 29.8872 -78.5953 North 418 481 33,000  Level Jacksonville Center
02:44PM 29.9994 -78.5758 North 421 484 33,000  Level Jacksonville Center
02:45PM 30.1200 -78.5681 North 421 484 33,000  Level Jacksonville Center
02:46PM 30.2361 -78.5461 North 410 472 33,000  Level Jacksonville Center
02:47PM 30.3567 -78.5286 North 406 467 33,000  Level Jacksonville Center
02:48PM 30.4731 -78.5136 North 418 481 33,000  Level Jacksonville Center
02:49PM 30.5956 -78.4933 North 425 489 33,000  Level Jacksonville Center
02:50PM 30.7161 -78.4758 North 428 493 33,000  Level Jacksonville Center
02:51PM 30.8322 -78.4558 North 420 483 33,000  Level Jacksonville Center
02:52PM 30.9547 -78.4356 North 432 497 33,000  Level Jacksonville Center
02:53PM 31.0606 -78.4161 North 431 496 33,000  Level Jacksonville Center
02:54PM 31.1808 -78.3958 North 425 489 33,000  Level Jacksonville Center
02:55PM 31.2969 -78.3781 North 425 489 33,000  Level Jacksonville Center
02:56PM 31.4156 -78.3625 North 425 489 33,000  Level Jacksonville Center
02:57PM 31.5378 -78.3369 10° North 425 489 33,000  Level Jacksonville Center
02:58PM 31.6561 -78.3214 North 432 497 33,000  Level Jacksonville Center
02:59PM 31.7764 -78.3008 North 432 497 33,000  Level Jacksonville Center
03:00PM 31.9008 -78.2800 North 438 504 33,000  Level Jacksonville Center
03:01PM 32.0192 -78.2594 North 438 504 33,000  Level Jacksonville Center
03:02PM 32.1519 -78.2356 North 440 506 33,000  Level Jacksonville Center
03:03PM 32.2742 -78.2144 North 440 506 33,000  Level Jacksonville Center
03:04PM 32.3944 -78.1911 North 440 506 33,000  Level Jacksonville Center
03:05PM 32.5128 -78.1728 North 435 501 33,000  Level Jacksonville Center
03:06PM 32.6331 -78.1567 North 435 501 33,000  Level Jacksonville Center
03:07PM 32.7533 -78.1356 North 435 501 33,000  Level Jacksonville Center
03:08PM 32.8758 -78.1142 North 435 501 33,000  Level Jacksonville Center
03:09PM 32.9981 -78.0953 North 435 501 33,000  Level Jacksonville Center
03:10PM 33.1186 -78.0764 North 445 512 33,000  Level Jacksonville Center
03:11PM 33.2411 -78.0600 North 440 506 33,000  Level Jacksonville Center
03:13PM 33.4336 -78.0278 North 467 537 33,000  Level Washington Center
03:14PM 33.5569 -78.0089 North 449 517 33,000  Level Washington Center
03:15PM 33.6744 -77.9872 North 442 509 33,000  Level Washington Center
03:16PM 33.7956 -77.9683 North 437 503 33,000  Level Washington Center
03:17PM 33.8919 -77.9536 North 437 503 33,000  Level Washington Center
03:18PM 34.0258 -77.9297 North 437 503 33,000  Level Washington Center
03:19PM 34.1472 -77.9106 North 437 503 33,000  Level Washington Center
03:20PM 34.2686 -77.8889 North 437 503 33,000  Level Washington Center
03:21PM 34.3942 -77.8772 North 442 509 33,000  Level Washington Center
03:22PM 34.5153 -77.8731 North 442 509 33,000  Level Washington Center
03:23PM 34.6361 -77.8739 360° North 442 509 33,000  Level Washington Center
03:24PM 34.7572 -77.8697 North 442 509 33,000  Level Washington Center
03:25PM 34.8806 -77.8656 North 434 499 33,000  Level Washington Center
03:26PM 34.9994 -77.8639 North 434 499 33,000  Level Washington Center
03:27PM 35.1225 -77.8647 360° North 434 499 33,000  Level Washington Center
03:28PM 35.2456 -77.8631 North 439 505 33,000  Level Washington Center
03:29PM 35.3647 -77.8589 North 439 505 33,000  Level Washington Center
03:30PM 35.4878 -77.8572 North 439 505 33,000  Level Washington Center
03:31PM 35.6108 -77.8556 North 439 505 33,000  Level Washington Center
03:32PM 35.7319 -77.8539 North 439 505 33,000  Level Washington Center
03:33PM 35.8675 -77.8553 360° North 439 505 33,000  Level Washington Center
03:34PM 35.9908 -77.8511 North 439 505 33,000  Level Washington Center
03:35PM 36.1119 -77.8494 North 439 505 33,000  Level Washington Center
03:36PM 36.2328 -77.8503 360° North 439 505 33,000  Level Washington Center
03:37PM 36.3539 -77.8511 360° North 439 505 33,000  Level Washington Center
03:38PM 36.4622 -77.8647 354° North 439 505 33,000  Level Washington Center
03:39PM 36.5806 -77.8836 353° North 439 505 33,000  Level Washington Center
03:40PM 36.6992 -77.9000 354° North 439 505 33,000  Level Washington Center
03:41PM 36.8219 -77.9142 355° North 439 505 33,000  Level Washington Center
03:42PM 36.9428 -77.9308 354° North 439 505 33,000  Level Washington Center
03:43PM 37.0633 -77.9500 353° North 439 505 33,000  Level Washington Center
03:44PM 37.1842 -77.9667 354° North 439 505 33,000  Level Washington Center
03:45PM 37.3067 -77.9836 354° North 439 505 33,000  Level Washington Center
03:46PM 37.4253 -78.0003 354° North 439 505 33,000  Level Washington Center
03:47PM 37.5461 -78.0172 354° North 439 505 33,000  Level Washington Center
03:48PM 37.6686 -78.0344 354° North 439 505 33,000  Level Washington Center
03:49PM 37.7872 -78.0486 355° North 439 505 33,000  Level Washington Center
03:50PM 37.9100 -78.0683 353° North 444 511 33,000  Level Washington Center
03:51PM 38.0411 -78.0858 354° North 444 511 33,000  Level Washington Center
03:52PM 38.1636 -78.1033 354° North 444 511 33,000  Level Washington Center
03:53PM 38.2864 -78.1206 354° North 444 511 33,000  Level Washington Center
03:54PM 38.4047 -78.1406 352° North 444 511 33,000  Level Washington Center
03:55PM 38.5294 -78.1581 354° North 439 505 33,000  Level Washington Center
03:56PM 38.6417 -78.1725 354° North 444 511 33,000  Level Washington Center
03:57PM 38.7769 -78.1933 353° North 444 511 33,000 -240 Level Washington Center
03:58PM 38.8975 -78.2108 354° North 438 504 32,600 -720 Descending Washington Center
03:59PM 39.0181 -78.2233 355° North 444 511 31,600 -840 Descending Washington Center
04:00PM 39.1428 -78.2358 356° North 444 511 31,000 -300 Descending Washington Center
04:01PM 39.2633 -78.2481 356° North 444 511 31,000  Level Washington Center
04:02PM 39.3861 -78.2633 355° North 444 511 31,000  Level Washington Center
04:04PM 39.6689 -78.2906 356° North 441 507 31,000  Level Cleveland Center
04:05PM 39.7858 -78.3031 355° North 451 519 31,000  Level Cleveland Center
04:06PM 39.9092 -78.3178 355° North 451 519 31,000  Level Cleveland Center
04:07PM 40.0344 -78.3297 356° North 451 519 31,000  Level Cleveland Center
04:08PM 40.1556 -78.3419 356° North 445 512 31,000  Level Cleveland Center
04:09PM 40.2831 -78.3569 355° North 445 512 31,000  Level Cleveland Center
04:10PM 40.4064 -78.3692 356° North 445 512 31,000  Level Cleveland Center
04:11PM 40.5294 -78.3814 356° North 445 512 31,000 -300 Level Cleveland Center
04:12PM 40.6550 -78.3964 355° North 445 512 30,500 -780 Descending Cleveland Center
04:13PM 40.7781 -78.4086 356° North 445 512 29,500 -1,020 Descending Cleveland Center
04:14PM 40.9181 -78.4233 355° North 445 512 28,500 -1,020 Descending Cleveland Center
04:15PM 41.0311 -78.4361 355° North 450 518 27,500 -2,280 Descending Cleveland Center
04:16PM 41.1625 -78.4483 356° North 439 505 24,000 -1,260 Descending Cleveland Center
04:17PM 41.2669 -78.4614 355° North 423 487 25,000  Climbing Cleveland Center
04:18PM 41.3881 -78.4742 355° North 418 481 24,000 -540 Descending Cleveland Center
04:19PM 41.5031 -78.4869 355° North 407 468 24,000  Level Cleveland Center
04:20PM 41.6139 -78.4972 356° North 402 463 24,000 -840 Level Cleveland Center
04:21PM 41.7161 -78.5108 354° North 391 450 22,400 -1,740 Descending Cleveland Center
04:22PM 41.8206 -78.5242 355° North 385 443 20,600 -1,800 Descending Cleveland Center
04:23PM 41.9208 -78.5319 357° North 373 429 18,900 -1,740 Descending Cleveland Center
04:24PM 42.0192 -78.5456 354° North 362 417 17,200 -1,800 Descending Cleveland Center
04:25PM 42.1131 -78.5567 355° North 352 405 15,400 -1,920 Descending Cleveland Center
04:26PM 42.2111 -78.5647 357° North 346 398 13,400 -1,740 Descending Cleveland Center
04:27PM 42.2992 -78.5956 345° North 335 386 12,000 -1,200 Descending Cleveland Center
04:28PM 42.3706 -78.6214 345° North 319 367 11,000 -540 Descending Cleveland Center
04:29PM 42.4525 -78.6528 344° North 307 353 11,000 -600 Level Cleveland Center
04:30PM 42.5283 -78.7067 332° Northwest 283 326 9,800 -1,440 Descending Cleveland Center
04:31PM 42.5853 -78.7475 332° Northwest 257 296 8,200 -1,500 Descending Cleveland Center
04:32PM 42.6464 -78.7881 334° Northwest 237 273 6,800 -1,200 Descending Cleveland Center
04:33PM 42.6969 -78.8317 328° Northwest 237 273 5,800 -840 Descending Cleveland Center
04:34PM 42.7417 -78.8842 319° Northwest 229 264 5,200 -720 Descending Cleveland Center
04:35PM 42.7922 -78.9253 329° Northwest 201 231 4,400 -900 Descending Cleveland Center
04:37PM 42.8500 -78.8333 49° Northeast 171 197 2,800 -840 Descending Buffalo TRACON
04:38PM 42.8833 -78.8000 36° Northeast 117 135 2,100 -720 Descending Buffalo TRACON